Time;durP1;ratioP1;P1;durP2;ratioP2;P2;SDS_P1;SDS_P2;PMS_P1;PMS_P2;Temp;Humidity;BMP_temperature;BMP_pressure;BME280_temperature;BME280_humidity;BME280_pressure;Samples;Min_cycle;Max_cycle;Signal;HPM_P1;HPM_P2
2022/03/28 00:00:51;;;;;;;28.20;14.38;;;307.90;640.00;;;;;;5094582;28;20059;-63
2022/03/28 00:03:16;;;;;;;32.88;15.45;;;307.80;665.60;;;;;;5095069;28;20545;-58
2022/03/28 00:05:42;;;;;;;32.33;14.77;;;307.80;665.60;;;;;;5094860;28;20492;-60
2022/03/28 00:08:08;;;;;;;35.03;17.08;;;307.80;665.60;;;;;;5094696;28;20415;-64
2022/03/28 00:10:34;;;;;;;40.05;17.20;;;307.70;665.60;;;;;;5095067;28;20031;-57
2022/03/28 00:13:00;;;;;;;35.80;17.88;;;307.70;691.20;;;;;;5094741;28;20020;-58
2022/03/28 00:15:25;;;;;;;39.22;17.52;;;307.70;691.20;;;;;;5094566;28;20449;-60
2022/03/28 00:17:51;;;;;;;35.28;16.02;;;307.70;691.20;;;;;;5093977;28;20017;-65
2022/03/28 00:20:17;;;;;;;34.60;15.38;;;307.60;691.20;;;;;;5094579;28;20031;-58
2022/03/28 00:22:43;;;;;;;32.35;14.52;;;307.60;691.20;;;;;;5094440;28;20024;-62
2022/03/28 00:25:11;;;;;;;28.85;13.65;;;307.50;691.20;;;;;;5094529;28;20031;-58
2022/03/28 00:27:37;;;;;;;42.13;14.55;;;307.50;691.20;;;;;;5094402;28;20024;-58
2022/03/28 00:30:04;;;;;;;30.23;14.55;;;307.40;716.80;;;;;;5094387;28;20032;-64
2022/03/28 00:32:30;;;;;;;33.25;15.32;;;307.40;716.80;;;;;;5094430;28;20044;-65
2022/03/28 00:34:56;;;;;;;32.55;17.17;;;307.40;716.80;;;;;;5094265;28;20074;-64
2022/03/28 00:37:22;;;;;;;36.03;16.55;;;307.40;716.80;;;;;;5094315;28;20032;-61
2022/03/28 00:39:47;;;;;;;36.70;17.63;;;282.50;691.20;;;;;;5094221;28;20024;-58
2022/03/28 00:42:13;;;;;;;33.45;17.63;;;282.50;691.20;;;;;;5094090;28;20024;-65
2022/03/28 00:44:39;;;;;;;41.40;18.67;;;307.20;716.80;;;;;;5094080;28;20062;-66
2022/03/28 00:47:05;;;;;;;39.05;19.02;;;307.20;716.80;;;;;;5094299;28;20054;-63
2022/03/28 00:49:31;;;;;;;33.30;18.90;;;307.20;716.80;;;;;;5093456;28;20047;-62
2022/03/28 00:51:57;;;;;;;38.03;19.15;;;282.50;691.20;;;;;;5093953;28;20106;-62
2022/03/28 00:54:23;;;;;;;45.65;21.08;;;282.50;691.20;;;;;;5094069;28;20063;-61
2022/03/28 00:56:50;;;;;;;42.10;20.65;;;282.40;691.20;;;;;;5093706;28;20062;-63
2022/03/28 00:59:16;;;;;;;42.85;19.33;;;282.40;691.20;;;;;;5093666;28;20059;-61
2022/03/28 01:01:45;;;;;;;43.65;20.50;;;282.40;716.80;;;;;;5094011;28;20096;-59
2022/03/28 01:04:11;;;;;;;43.40;20.05;;;282.40;716.80;;;;;;5093953;28;20021;-57
2022/03/28 01:06:38;;;;;;;39.42;19.90;;;282.30;716.80;;;;;;5094096;28;20031;-62
2022/03/28 01:09:04;;;;;;;35.00;19.30;;;282.30;716.80;;;;;;5093541;28;20048;-62
2022/03/28 01:11:34;;;;;;;38.80;19.73;;;282.30;716.80;;;;;;5093811;28;20401;-66
2022/03/28 01:14:00;;;;;;;34.95;18.58;;;282.30;742.40;;;;;;5093854;28;20028;-59
2022/03/28 01:16:30;;;;;;;35.78;18.00;;;282.30;742.40;;;;;;5093697;28;20021;-63
2022/03/28 01:18:56;;;;;;;36.33;18.20;;;282.30;742.40;;;;;;5093850;28;20134;-63
2022/03/28 01:21:22;;;;;;;35.50;17.95;;;282.30;716.80;;;;;;5093757;28;20066;-66
2022/03/28 01:23:48;;;;;;;42.40;21.52;;;282.30;742.40;;;;;;5093791;28;20032;-64
2022/03/28 01:26:15;;;;;;;46.45;23.05;;;282.20;742.40;;;;;;5093774;28;20052;-65
2022/03/28 01:28:41;;;;;;;53.85;21.33;;;282.20;742.40;;;;;;5093419;28;20036;-68
2022/03/28 01:31:10;;;;;;;45.53;19.95;;;282.20;844.80;;;;;;5096404;28;20028;-64
2022/03/28 01:33:35;;;;;;;47.38;20.52;;;282.00;768.00;;;;;;5097819;28;20031;-64
2022/03/28 01:36:01;;;;;;;52.20;20.95;;;281.90;768.00;;;;;;5097592;28;20370;-64
2022/03/28 01:38:27;;;;;;;42.75;20.25;;;281.70;768.00;;;;;;5097535;28;20036;-64
2022/03/28 01:40:53;;;;;;;52.28;20.90;;;281.60;768.00;;;;;;5097690;28;20028;-63
2022/03/28 01:43:20;;;;;;;53.22;20.65;;;256.80;768.00;;;;;;5097406;28;20075;-63
2022/03/28 01:45:46;;;;;;;40.20;19.63;;;256.60;768.00;;;;;;5097523;28;20020;-62
2022/03/28 01:48:14;;;;;;;47.42;20.33;;;256.50;793.60;;;;;;5097267;28;20486;-62
2022/03/28 01:50:40;;;;;;;43.65;19.38;;;256.40;793.60;;;;;;5097411;28;20036;-61
2022/03/28 01:53:07;;;;;;;41.92;18.35;;;256.30;793.60;;;;;;5097211;28;20017;-62
2022/03/28 01:55:33;;;;;;;39.85;18.58;;;256.10;793.60;;;;;;5097166;28;20115;-64
2022/03/28 01:57:59;;;;;;;44.85;18.15;;;256.10;819.20;;;;;;5097331;28;20039;-62
2022/03/28 02:00:31;;;;;;;40.15;17.63;;;231.30;819.20;;;;;;5096864;28;20347;-61
2022/03/28 02:02:57;;;;;;;37.65;17.73;;;231.30;844.80;;;;;;5097285;28;20035;-61
2022/03/28 02:05:23;;;;;;;41.28;17.45;;;231.20;844.80;;;;;;5097260;28;20103;-61
2022/03/28 02:07:49;;;;;;;41.85;19.63;;;231.20;844.80;;;;;;5096802;28;20569;-61
2022/03/28 02:10:18;;;;;;;50.22;22.60;;;231.10;844.80;;;;;;5096770;28;20123;-61
2022/03/28 02:12:44;;;;;;;38.38;19.40;;;231.10;844.80;;;;;;5096963;28;20028;-62
2022/03/28 02:15:11;;;;;;;43.30;19.02;;;231.10;844.80;;;;;;5097006;28;20169;-61
2022/03/28 02:17:39;;;;;;;41.63;18.08;;;231.00;870.40;;;;;;5096824;28;20024;-63
2022/03/28 02:20:06;;;;;;;36.25;18.50;;;231.00;870.40;;;;;;5096799;28;20108;-62
2022/03/28 02:22:33;;;;;;;35.88;21.60;;;231.00;870.40;;;;;;5096905;28;20020;-63
2022/03/28 02:24:59;;;;;;;43.65;24.83;;;230.90;870.40;;;;;;5096857;28;20116;-63
2022/03/28 02:27:24;;;;;;;46.40;27.13;;;230.90;870.40;;;;;;5096796;28;20525;-63
2022/03/28 02:29:50;;;;;;;49.97;22.17;;;230.80;870.40;;;;;;5096625;28;20111;-63
2022/03/28 02:32:16;;;;;;;36.60;19.75;;;230.70;870.40;;;;;;5096727;28;20024;-62
2022/03/28 02:34:42;;;;;;;30.92;17.58;;;230.70;870.40;;;;;;5096209;28;20103;-62
2022/03/28 02:37:08;;;;;;;38.05;18.13;;;230.60;870.40;;;;;;5096943;28;20089;-64
2022/03/28 02:39:34;;;;;;;31.60;16.48;;;230.60;870.40;;;;;;5096675;28;20024;-65
2022/03/28 02:42:00;;;;;;;31.20;16.60;;;230.60;870.40;;;;;;5095878;28;20028;-66
2022/03/28 02:44:26;;;;;;;31.60;16.92;;;230.60;870.40;;;;;;5096433;28;20024;-66
2022/03/28 02:46:51;;;;;;;33.60;17.05;;;230.60;896.00;;;;;;5096451;28;20415;-66
2022/03/28 02:49:19;;;;;;;37.75;17.55;;;230.60;896.00;;;;;;5096274;28;20040;-66
2022/03/28 02:51:45;;;;;;;32.40;17.63;;;230.50;896.00;;;;;;5096391;28;20085;-66
2022/03/28 02:54:11;;;;;;;42.97;19.20;;;230.50;896.00;;;;;;5096212;28;20036;-66
2022/03/28 02:56:37;;;;;;;51.97;24.63;;;230.50;896.00;;;;;;5095908;28;20028;-66
2022/03/28 02:59:03;;;;;;;46.30;25.20;;;230.50;896.00;;;;;;5094796;28;20040;-64
2022/03/28 03:01:29;;;;;;;49.75;25.77;;;230.40;896.00;;;;;;5096628;28;20373;-65
2022/03/28 03:03:55;;;;;;;43.35;23.33;;;230.40;896.00;;;;;;5095782;28;20054;-66
2022/03/28 03:06:21;;;;;;;46.28;21.83;;;205.70;921.60;;;;;;5096000;28;20391;-66
2022/03/28 03:08:47;;;;;;;62.47;29.25;;;205.70;921.60;;;;;;5095712;28;20554;-66
2022/03/28 03:11:13;;;;;;;51.25;30.05;;;205.70;921.60;;;;;;5096002;28;20032;-64
2022/03/28 03:13:39;;;;;;;57.83;28.00;;;205.70;921.60;;;;;;5095658;28;20061;-64
2022/03/28 03:16:05;;;;;;;54.88;25.88;;;205.70;921.60;;;;;;5096069;28;20107;-64
2022/03/28 03:18:31;;;;;;;52.72;24.92;;;205.60;921.60;;;;;;5095919;28;20032;-64
2022/03/28 03:20:59;;;;;;;61.25;24.90;;;205.50;947.20;;;;;;5095666;28;20031;-65
2022/03/28 03:23:26;;;;;;;53.42;24.35;;;205.50;947.20;;;;;;5095513;28;20098;-65
2022/03/28 03:25:52;;;;;;;46.92;24.52;;;205.50;947.20;;;;;;5095564;28;20115;-66
2022/03/28 03:28:20;;;;;;;45.35;24.30;;;205.50;921.60;;;;;;5095438;28;20051;-66
2022/03/28 03:30:48;;;;;;;54.97;25.38;;;205.40;921.60;;;;;;5095520;28;20040;-65
2022/03/28 03:33:15;;;;;;;58.75;24.17;;;205.40;947.20;;;;;;5095499;28;20093;-65
2022/03/28 03:35:41;;;;;;;60.95;28.20;;;205.40;947.20;;;;;;5095394;28;20039;-64
2022/03/28 03:38:07;;;;;;;56.50;26.63;;;205.30;947.20;;;;;;5095345;28;20020;-63
2022/03/28 03:40:33;;;;;;;49.25;25.65;;;205.20;947.20;;;;;;5095412;28;20038;-63
2022/03/28 03:42:58;;;;;;;56.00;25.92;;;205.20;947.20;;;;;;5095187;28;20052;-63
2022/03/28 03:45:24;;;;;;;48.45;24.15;;;205.20;947.20;;;;;;5095206;28;20115;-63
2022/03/28 03:47:51;;;;;;;55.85;26.10;;;205.20;972.80;;;;;;5095231;28;20461;-63
2022/03/28 03:50:17;;;;;;;58.15;27.50;;;205.20;972.80;;;;;;5095079;28;20370;-63
2022/03/28 03:52:43;;;;;;;70.40;26.60;;;205.20;998.40;;;;;;5094298;28;20111;-63
2022/03/28 03:55:10;;;;;;;57.05;25.20;;;205.20;998.40;;;;;;5095138;28;20040;-64
2022/03/28 03:57:36;;;;;;;62.60;26.15;;;205.10;998.40;;;;;;5095053;28;20028;-64
2022/03/28 04:00:06;;;;;;;61.38;26.70;;;205.10;998.40;;;;;;5094950;28;20068;-63
2022/03/28 04:02:31;;;;;;;60.15;26.08;;;205.10;998.40;;;;;;5094654;28;20028;-63
2022/03/28 04:04:57;;;;;;;74.80;28.00;;;205.00;998.40;;;;;;5093882;28;20020;-59
2022/03/28 04:07:23;;;;;;;57.42;24.83;;;205.00;998.40;;;;;;5094147;28;20028;-60
2022/03/28 04:09:48;;;;;;;77.65;27.73;;;205.00;998.40;;;;;;5093828;28;20040;-61
2022/03/28 04:12:14;;;;;;;67.03;27.85;;;205.00;998.40;;;;;;5092614;28;20024;-60
2022/03/28 04:14:40;;;;;;;94.18;31.25;;;205.00;1024.00;;;;;;5094055;28;20074;-59
2022/03/28 04:17:06;;;;;;;81.30;27.80;;;204.90;1024.00;;;;;;5093942;28;20039;-60
2022/03/28 04:19:31;;;;;;;70.88;29.10;;;204.90;1024.00;;;;;;5093876;28;20039;-60
2022/03/28 04:21:58;;;;;;;78.53;31.52;;;204.80;1024.00;;;;;;5093613;28;20020;-61
2022/03/28 04:24:23;;;;;;;87.18;32.55;;;204.80;1049.60;;;;;;5093326;28;20032;-60
2022/03/28 04:26:49;;;;;;;76.25;31.00;;;204.80;1024.00;;;;;;5093601;28;20031;-60
2022/03/28 04:29:15;;;;;;;89.22;32.70;;;204.90;1024.00;;;;;;5092410;28;20389;-59
2022/03/28 04:31:41;;;;;;;88.82;35.25;;;204.90;1024.00;;;;;;5093474;28;20051;-62
2022/03/28 04:34:07;;;;;;;105.53;37.72;;;204.90;1024.00;;;;;;5093715;28;20423;-60
2022/03/28 04:36:33;;;;;;;113.93;39.95;;;204.90;1024.00;;;;;;5093409;28;20019;-60
2022/03/28 04:38:59;;;;;;;88.88;35.03;;;204.90;1024.00;;;;;;5094039;28;20457;-61
2022/03/28 04:41:25;;;;;;;89.72;36.92;;;204.80;1024.00;;;;;;5093756;28;20051;-62
2022/03/28 04:43:51;;;;;;;103.05;44.65;;;204.80;1024.00;;;;;;5094024;28;20017;-62
2022/03/28 04:46:17;;;;;;;115.07;43.47;;;204.80;1024.00;;;;;;5093998;28;20028;-62
2022/03/28 04:48:43;;;;;;;84.80;37.78;;;204.80;1024.00;;;;;;5094127;28;20046;-61
2022/03/28 04:51:09;;;;;;;73.80;37.15;;;204.80;1024.00;;;;;;5093866;28;20070;-62
2022/03/28 04:53:34;;;;;;;113.97;45.58;;;204.80;972.80;;;;;;5094462;28;20032;-61
2022/03/28 04:56:00;;;;;;;133.60;59.17;;;204.80;972.80;;;;;;5085097;28;20377;-62
2022/03/28 04:58:26;;;;;;;116.05;60.72;;;204.90;972.80;;;;;;5093325;28;20423;-62
2022/03/28 05:00:52;;;;;;;108.53;52.20;;;204.90;972.80;;;;;;5093262;28;20119;-61
2022/03/28 05:03:18;;;;;;;78.53;36.00;;;205.00;972.80;;;;;;5093129;28;20082;-62
2022/03/28 05:05:44;;;;;;;55.08;30.23;;;205.00;947.20;;;;;;5093247;28;20032;-62
2022/03/28 05:08:10;;;;;;;84.20;28.45;;;205.00;947.20;;;;;;5093419;28;20440;-62
2022/03/28 05:10:36;;;;;;;80.60;28.23;;;205.00;947.20;;;;;;5093549;28;20021;-62
2022/03/28 05:13:02;;;;;;;57.03;24.45;;;205.10;947.20;;;;;;5093482;28;20050;-63
2022/03/28 05:15:28;;;;;;;44.38;22.25;;;205.10;947.20;;;;;;5093772;28;20053;-62
2022/03/28 05:17:53;;;;;;;58.13;21.75;;;205.10;921.60;;;;;;5093237;28;20137;-62
2022/03/28 05:20:19;;;;;;;61.60;22.35;;;205.10;921.60;;;;;;5093617;28;20020;-63
2022/03/28 05:22:45;;;;;;;52.08;20.13;;;205.10;947.20;;;;;;5093505;28;20097;-62
2022/03/28 05:25:11;;;;;;;44.95;21.00;;;205.20;947.20;;;;;;5093497;28;20020;-62
2022/03/28 05:27:47;;;;;;;52.25;22.23;;;205.20;947.20;;;;;;5093382;28;20024;-63
2022/03/28 05:30:14;;;;;;;52.95;26.38;;;205.20;947.20;;;;;;5093537;28;20040;-62
2022/03/28 05:32:42;;;;;;;58.63;27.55;;;205.30;947.20;;;;;;5093488;28;20024;-62
2022/03/28 05:35:09;;;;;;;61.78;28.30;;;205.30;947.20;;;;;;5093705;28;20028;-62
2022/03/28 05:37:35;;;;;;;54.97;24.13;;;205.30;947.20;;;;;;5093290;28;20020;-62
2022/03/28 05:40:02;;;;;;;73.32;26.02;;;205.40;921.60;;;;;;5093458;28;20020;-63
2022/03/28 05:42:28;;;;;;;56.90;27.20;;;205.50;921.60;;;;;;5093086;28;20020;-62
2022/03/28 05:44:54;;;;;;;65.75;30.35;;;205.60;896.00;;;;;;5093418;28;20035;-62
2022/03/28 05:47:19;;;;;;;67.15;32.85;;;205.70;896.00;;;;;;5093280;28;20028;-63
2022/03/28 05:49:45;;;;;;;48.50;23.70;;;230.40;870.40;;;;;;5093310;28;20039;-62
2022/03/28 05:52:11;;;;;;;37.47;16.05;;;230.40;870.40;;;;;;5093277;28;20016;-62
2022/03/28 05:54:36;;;;;;;39.72;14.77;;;230.60;844.80;;;;;;5093179;28;20461;-62
2022/03/28 05:57:02;;;;;;;43.45;15.20;;;230.70;844.80;;;;;;5092961;28;20030;-62
2022/03/28 05:59:28;;;;;;;37.80;14.82;;;230.70;844.80;;;;;;5092924;28;20028;-63
2022/03/28 06:01:54;;;;;;;32.95;15.45;;;230.80;870.40;;;;;;5093216;28;20461;-62
2022/03/28 06:04:20;;;;;;;40.00;16.13;;;230.90;819.20;;;;;;5092401;28;20028;-62
2022/03/28 06:06:46;;;;;;;29.48;14.80;;;231.00;819.20;;;;;;5092704;28;20051;-61
2022/03/28 06:09:12;;;;;;;34.40;15.82;;;231.10;819.20;;;;;;5092608;28;20067;-62
2022/03/28 06:11:38;;;;;;;23.90;12.98;;;231.20;793.60;;;;;;5092866;28;20020;-61
2022/03/28 06:14:04;;;;;;;25.55;12.52;;;231.30;793.60;;;;;;5092976;28;20024;-61
2022/03/28 06:16:30;;;;;;;24.58;11.65;;;256.00;793.60;;;;;;5094626;28;20110;-65
2022/03/28 06:18:56;;;;;;;23.77;11.38;;;256.10;793.60;;;;;;5096593;28;20028;-63
2022/03/28 06:21:22;;;;;;;25.23;11.27;;;256.20;793.60;;;;;;5096765;28;20426;-62
2022/03/28 06:23:48;;;;;;;28.05;11.00;;;256.30;793.60;;;;;;5096839;28;20053;-62
2022/03/28 06:26:14;;;;;;;28.40;10.90;;;256.30;793.60;;;;;;5096897;28;20024;-62
2022/03/28 06:28:40;;;;;;;27.58;10.10;;;256.50;768.00;;;;;;5096470;28;20020;-62
2022/03/28 06:31:06;;;;;;;20.95;8.32;;;256.60;768.00;;;;;;5096033;28;20035;-62
2022/03/28 06:33:33;;;;;;;15.77;8.20;;;256.70;742.40;;;;;;5095865;28;20461;-62
2022/03/28 06:35:59;;;;;;;12.65;7.07;;;256.80;742.40;;;;;;5096579;28;20381;-61
2022/03/28 06:38:24;;;;;;;17.17;7.28;;;281.60;742.40;;;;;;5096741;28;20028;-64
2022/03/28 06:40:50;;;;;;;19.33;6.82;;;281.70;742.40;;;;;;5096628;28;20027;-64
2022/03/28 06:43:16;;;;;;;15.77;6.53;;;281.80;742.40;;;;;;5096308;28;20486;-64
2022/03/28 06:45:42;;;;;;;11.45;6.47;;;282.00;716.80;;;;;;5096462;28;20069;-64
2022/03/28 06:48:07;;;;;;;17.25;7.07;;;282.10;716.80;;;;;;5096194;28;20028;-64
2022/03/28 06:50:34;;;;;;;18.00;7.40;;;282.20;691.20;;;;;;5096306;28;20036;-64
2022/03/28 06:53:00;;;;;;;18.65;9.70;;;282.30;691.20;;;;;;5096422;28;20037;-62
2022/03/28 06:55:26;;;;;;;25.08;11.15;;;282.50;691.20;;;;;;5096348;28;20682;-64
2022/03/28 06:57:52;;;;;;;17.38;8.52;;;307.30;716.80;;;;;;5096288;28;20370;-64
2022/03/28 07:00:18;;;;;;;16.13;7.25;;;307.40;691.20;;;;;;5096187;28;20038;-64
2022/03/28 07:02:45;;;;;;;14.38;7.28;;;307.60;691.20;;;;;;5095767;28;20435;-64
2022/03/28 07:05:10;;;;;;;29.63;7.32;;;307.80;691.20;;;;;;5096189;28;20020;-63
2022/03/28 07:07:47;;;;;;;12.23;6.10;;;307.90;691.20;;;;;;5095827;28;20484;-62
2022/03/28 07:10:18;;;;;;;11.15;5.75;;;308.10;665.60;;;;;;5095827;28;20473;-62
2022/03/28 07:12:44;;;;;;;12.05;5.95;;;332.90;691.20;;;;;;5095790;28;20095;-64
2022/03/28 07:15:12;;;;;;;14.77;6.47;;;333.10;691.20;;;;;;5095869;28;20031;-64
2022/03/28 07:18:07;;;;;;;15.32;6.63;;;333.30;691.20;;;;;;5095874;28;20035;-64
2022/03/28 07:20:33;;;;;;;19.60;7.32;;;333.40;691.20;;;;;;5093516;28;20149;-64
2022/03/28 07:22:59;;;;;;;11.43;6.35;;;333.60;665.60;;;;;;5095200;28;20496;-65
2022/03/28 07:25:26;;;;;;;15.90;6.20;;;358.40;665.60;;;;;;5093345;28;20086;-65
2022/03/28 07:27:52;;;;;;;10.48;6.40;;;358.60;665.60;;;;;;5095598;28;20051;-65
2022/03/28 07:30:19;;;;;;;15.07;6.57;;;358.80;665.60;;;;;;5095659;28;20032;-65
2022/03/28 07:32:45;;;;;;;17.70;5.53;;;359.00;665.60;;;;;;5095569;28;20016;-65
2022/03/28 07:35:12;;;;;;;11.85;5.55;;;359.10;640.00;;;;;;5095623;28;20365;-64
2022/03/28 07:37:41;;;;;;;12.65;6.15;;;359.30;665.60;;;;;;5095147;28;20081;-63
2022/03/28 07:40:08;;;;;;;15.43;7.03;;;384.10;665.60;;;;;;5095228;28;20020;-64
2022/03/28 07:42:35;;;;;;;19.80;6.70;;;384.20;665.60;;;;;;5095128;28;20023;-63
2022/03/28 07:45:03;;;;;;;13.25;6.03;;;384.40;665.60;;;;;;5095299;28;20028;-64
2022/03/28 07:47:29;;;;;;;17.67;6.82;;;384.50;665.60;;;;;;5095376;28;20039;-63
2022/03/28 07:49:57;;;;;;;14.60;6.63;;;384.70;665.60;;;;;;5095123;28;20413;-64
2022/03/28 07:52:23;;;;;;;12.45;5.65;;;384.70;640.00;;;;;;5095013;28;20071;-64
2022/03/28 07:54:50;;;;;;;13.70;5.50;;;384.80;640.00;;;;;;5094942;28;20032;-65
2022/03/28 07:57:16;;;;;;;15.52;5.22;;;409.60;665.60;;;;;;5095053;28;20469;-65
2022/03/28 07:59:44;;;;;;;20.17;6.30;;;409.80;640.00;;;;;;5095412;28;20020;-65
2022/03/28 08:02:10;;;;;;;10.07;4.28;;;410.00;640.00;;;;;;5095044;28;20048;-65
2022/03/28 08:04:36;;;;;;;9.82;3.63;;;410.10;614.40;;;;;;5095026;28;20048;-65
2022/03/28 08:07:05;;;;;;;11.98;3.58;;;410.30;588.80;;;;;;5095182;28;20024;-63
2022/03/28 08:09:30;;;;;;;15.40;4.30;;;410.50;588.80;;;;;;5094643;28;20408;-65
2022/03/28 08:11:57;;;;;;;10.07;4.38;;;435.20;563.20;;;;;;5095150;28;20028;-66
2022/03/28 08:14:23;;;;;;;17.77;4.78;;;435.40;563.20;;;;;;5094868;28;20032;-65
2022/03/28 08:16:49;;;;;;;8.32;3.50;;;435.50;537.60;;;;;;5094749;28;20061;-65
2022/03/28 08:19:15;;;;;;;11.05;2.95;;;435.70;512.00;;;;;;5094681;28;20028;-65
2022/03/28 08:21:41;;;;;;;11.60;2.88;;;435.70;486.40;;;;;;5094665;28;20020;-65
2022/03/28 08:24:07;;;;;;;13.60;3.70;;;435.80;486.40;;;;;;5093277;28;20028;-65
2022/03/28 08:26:32;;;;;;;6.20;3.13;;;436.00;486.40;;;;;;5094551;28;20469;-64
2022/03/28 08:28:58;;;;;;;13.77;3.30;;;436.00;486.40;;;;;;5094372;28;20047;-65
2022/03/28 08:31:24;;;;;;;7.18;4.18;;;460.80;512.00;;;;;;5094468;28;20377;-65
2022/03/28 08:33:50;;;;;;;12.55;3.90;;;460.90;512.00;;;;;;5094138;28;20047;-65
2022/03/28 08:36:15;;;;;;;6.10;2.85;;;461.00;486.40;;;;;;5094286;28;20055;-65
2022/03/28 08:38:41;;;;;;;6.00;3.03;;;461.10;486.40;;;;;;5094003;28;20032;-65
2022/03/28 08:41:14;;;;;;;10.50;2.83;;;461.20;486.40;;;;;;5094310;28;20031;-65
2022/03/28 08:43:40;;;;;;;10.48;3.00;;;461.30;486.40;;;;;;5094126;28;20024;-65
2022/03/28 08:46:08;;;;;;;23.08;3.83;;;461.40;486.40;;;;;;5094305;28;20032;-65
2022/03/28 08:48:40;;;;;;;10.35;3.17;;;461.50;486.40;;;;;;5094079;28;20161;-63
2022/03/28 08:51:08;;;;;;;8.10;3.40;;;461.60;486.40;;;;;;5094087;28;20042;-65
2022/03/28 08:53:35;;;;;;;22.10;3.78;;;461.60;486.40;;;;;;5094249;28;20028;-64
2022/03/28 08:56:00;;;;;;;8.18;3.55;;;461.70;486.40;;;;;;5094715;28;20020;-66
2022/03/28 08:58:27;;;;;;;22.00;3.80;;;486.40;486.40;;;;;;5094065;28;20031;-66
2022/03/28 09:00:53;;;;;;;10.20;3.95;;;486.40;486.40;;;;;;5093982;28;20028;-64
2022/03/28 09:03:19;;;;;;;10.43;3.67;;;486.50;486.40;;;;;;5093960;28;20099;-63
2022/03/28 09:05:49;;;;;;;10.52;3.53;;;486.60;486.40;;;;;;5093541;28;20121;-66
2022/03/28 09:08:15;;;;;;;8.30;3.55;;;486.70;486.40;;;;;;5093732;28;20105;-66
2022/03/28 09:10:47;;;;;;;13.82;4.18;;;486.80;512.00;;;;;;5093472;28;20035;-66
2022/03/28 09:13:17;;;;;;;8.40;4.13;;;486.80;512.00;;;;;;5093331;28;20103;-65
2022/03/28 09:15:57;;;;;;;13.35;3.80;;;486.80;537.60;;;;;;5094181;28;20034;-64
2022/03/28 09:18:22;;;;;;;9.15;4.13;;;487.00;537.60;;;;;;5093734;28;20048;-65
2022/03/28 09:20:57;;;;;;;8.80;4.70;;;487.10;537.60;;;;;;5093848;28;20035;-64
2022/03/28 09:23:38;;;;;;;12.45;3.88;;;487.20;537.60;;;;;;5094085;28;20020;-63
2022/03/28 09:26:23;;;;;;;20.20;4.57;;;487.30;537.60;;;;;;5093629;28;20032;-64
2022/03/28 09:28:58;;;;;;;15.18;4.28;;;512.00;537.60;;;;;;5093705;28;20044;-65
2022/03/28 09:31:43;;;;;;;14.27;4.88;;;512.00;563.20;;;;;;5093532;28;20047;-65
2022/03/28 09:34:15;;;;;;;14.20;5.60;;;512.20;563.20;;;;;;5093798;28;20016;-66
2022/03/28 09:36:56;;;;;;;14.57;4.35;;;512.20;563.20;;;;;;5093710;28;20467;-65
2022/03/28 09:39:27;;;;;;;11.80;4.43;;;512.30;563.20;;;;;;5093763;28;20020;-65
2022/03/28 09:42:13;;;;;;;8.13;4.38;;;512.40;588.80;;;;;;5093721;28;20028;-66
2022/03/28 09:44:51;;;;;;;10.88;4.55;;;512.30;614.40;;;;;;5093238;28;20035;-65
2022/03/28 09:47:21;;;;;;;14.88;4.80;;;512.40;614.40;;;;;;5093474;28;20458;-65
2022/03/28 09:49:51;;;;;;;11.27;5.00;;;512.50;588.80;;;;;;5093709;28;20482;-65
2022/03/28 09:52:20;;;;;;;19.42;5.18;;;512.50;588.80;;;;;;5096333;28;20032;-65
2022/03/28 09:54:55;;;;;;;12.15;5.22;;;512.60;588.80;;;;;;5097485;28;20074;-65
2022/03/28 09:57:26;;;;;;;8.18;4.43;;;512.60;614.40;;;;;;5097336;28;20024;-65
2022/03/28 09:59:53;;;;;;;7.30;4.20;;;512.70;640.00;;;;;;5097293;28;20020;-65
2022/03/28 10:02:26;;;;;;;11.23;4.28;;;512.60;640.00;;;;;;5097248;28;20039;-66
2022/03/28 10:04:55;;;;;;;7.45;4.55;;;512.60;640.00;;;;;;5097035;28;20020;-66
2022/03/28 10:07:21;;;;;;;7.25;4.75;;;512.70;665.60;;;;;;5097030;28;20107;-66
2022/03/28 10:09:48;;;;;;;11.85;5.82;;;512.70;640.00;;;;;;5096983;28;20554;-66
2022/03/28 10:12:14;;;;;;;10.50;4.60;;;512.80;640.00;;;;;;5097185;28;20024;-65
2022/03/28 10:14:40;;;;;;;11.90;4.93;;;512.90;640.00;;;;;;5097113;28;20028;-64
2022/03/28 10:17:06;;;;;;;13.35;5.18;;;512.90;640.00;;;;;;5097145;28;20028;-65
2022/03/28 10:19:37;;;;;;;8.05;4.68;;;512.80;640.00;;;;;;5097138;28;20028;-65
2022/03/28 10:22:12;;;;;;;9.05;5.03;;;537.60;665.60;;;;;;5096720;28;20073;-66
2022/03/28 10:24:41;;;;;;;8.98;5.00;;;537.60;665.60;;;;;;5096963;28;20024;-66
2022/03/28 10:27:08;;;;;;;9.20;5.28;;;512.90;640.00;;;;;;5096968;28;20093;-66
2022/03/28 10:29:38;;;;;;;9.88;4.38;;;537.60;665.60;;;;;;5097000;28;20044;-65
2022/03/28 10:32:07;;;;;;;11.95;4.97;;;537.70;640.00;;;;;;5096712;28;20111;-65
2022/03/28 10:34:56;;;;;;;9.15;4.55;;;537.60;665.60;;;;;;5096804;28;20020;-64
2022/03/28 10:37:37;;;;;;;11.23;4.82;;;537.60;640.00;;;;;;5096683;28;20427;-66
2022/03/28 10:40:23;;;;;;;7.82;3.97;;;512.90;640.00;;;;;;5096519;28;20016;-65
2022/03/28 10:43:01;;;;;;;8.95;4.40;;;512.90;614.40;;;;;;5096658;28;20024;-64
2022/03/28 10:45:53;;;;;;;5.85;3.95;;;512.90;640.00;;;;;;5096426;28;20027;-65
2022/03/28 10:48:40;;;;;;;15.88;8.82;;;512.80;640.00;;;;;;5096344;28;20095;-65
2022/03/28 10:51:10;;;;;;;9.95;5.38;;;537.60;665.60;;;;;;5096452;28;20031;-66
2022/03/28 10:53:41;;;;;;;14.25;4.57;;;537.60;640.00;;;;;;5096273;28;20050;-65
2022/03/28 10:56:12;;;;;;;9.73;4.47;;;537.60;640.00;;;;;;5096380;28;20111;-66
2022/03/28 10:58:41;;;;;;;7.90;3.90;;;537.60;640.00;;;;;;5096311;28;20413;-65
2022/03/28 11:01:12;;;;;;;5.57;4.18;;;537.60;614.40;;;;;;5096172;28;20047;-65
2022/03/28 11:03:50;;;;;;;11.43;3.92;;;537.60;614.40;;;;;;5095807;28;20077;-65
2022/03/28 11:06:19;;;;;;;7.30;3.85;;;512.90;614.40;;;;;;5095983;28;20028;-66
2022/03/28 11:09:00;;;;;;;8.02;4.47;;;537.60;614.40;;;;;;5095786;28;20052;-66
2022/03/28 11:11:32;;;;;;;12.27;4.40;;;537.70;614.40;;;;;;5095625;28;20061;-66
2022/03/28 11:14:04;;;;;;;15.05;4.20;;;537.70;614.40;;;;;;5095748;28;20113;-66
2022/03/28 11:16:49;;;;;;;14.40;4.13;;;537.80;614.40;;;;;;5096091;28;20012;-66
2022/03/28 11:19:33;;;;;;;7.35;4.18;;;537.90;588.80;;;;;;5095879;28;20031;-66
2022/03/28 11:22:04;;;;;;;8.40;4.28;;;537.90;588.80;;;;;;5095905;28;20032;-65
2022/03/28 11:24:56;;;;;;;9.68;4.10;;;537.90;614.40;;;;;;5095576;28;20028;-65
2022/03/28 11:27:23;;;;;;;13.02;5.50;;;538.10;563.20;;;;;;5095535;28;20028;-66
2022/03/28 11:29:58;;;;;;;13.50;5.05;;;538.10;563.20;;;;;;5095562;28;20047;-66
2022/03/28 11:32:29;;;;;;;13.35;6.32;;;538.10;563.20;;;;;;5095497;28;20027;-66
2022/03/28 11:34:55;;;;;;;7.25;4.82;;;538.10;563.20;;;;;;5094913;28;20534;-65
2022/03/28 11:37:26;;;;;;;10.35;5.15;;;538.10;563.20;;;;;;5095961;28;20032;-66
2022/03/28 11:39:55;;;;;;;10.63;4.18;;;538.10;563.20;;;;;;5095231;28;20385;-66
2022/03/28 11:42:25;;;;;;;8.52;3.97;;;538.00;563.20;;;;;;5095271;28;20386;-66
2022/03/28 11:44:50;;;;;;;13.20;4.38;;;538.00;563.20;;;;;;5095439;28;20074;-65
2022/03/28 11:47:18;;;;;;;7.80;3.60;;;537.90;563.20;;;;;;5095420;28;20434;-66
2022/03/28 11:49:55;;;;;;;8.60;3.50;;;538.00;563.20;;;;;;5095016;28;20385;-65
2022/03/28 11:52:23;;;;;;;9.55;3.92;;;538.10;563.20;;;;;;5095359;28;20069;-66
2022/03/28 11:54:49;;;;;;;7.72;3.60;;;538.10;563.20;;;;;;5095273;28;20537;-65
2022/03/28 12:00:22;;;;;;;7.68;3.70;;;538.30;537.60;;;;;;5095250;28;20100;-66
2022/03/28 12:02:47;;;;;;;6.93;3.85;;;538.20;537.60;;;;;;5094925;28;20158;-66
2022/03/28 12:05:33;;;;;;;8.63;3.67;;;538.30;537.60;;;;;;5095105;28;20111;-66
2022/03/28 12:08:01;;;;;;;9.10;3.58;;;538.30;537.60;;;;;;5094816;28;20035;-66
2022/03/28 12:10:32;;;;;;;6.85;3.75;;;538.20;537.60;;;;;;5094588;28;20047;-66
2022/03/28 12:13:00;;;;;;;18.83;5.07;;;538.30;537.60;;;;;;5094406;28;20103;-67
2022/03/28 12:15:29;;;;;;;11.48;5.45;;;538.40;537.60;;;;;;5094485;28;20024;-66
2022/03/28 12:18:00;;;;;;;14.88;4.72;;;538.40;563.20;;;;;;5094720;28;20024;-64
2022/03/28 12:20:28;;;;;;;12.20;4.22;;;538.50;537.60;;;;;;5094743;28;20419;-65